Time;durP1;ratioP1;P1;durP2;ratioP2;P2;SDS_P1;SDS_P2;PMS_P1;PMS_P2;Temp;Humidity;BMP_temperature;BMP_pressure;BME280_temperature;BME280_humidity;BME280_pressure;Samples;Min_cycle;Max_cycle;Signal;HPM_P1;HPM_P2
2021/07/18 00:00:54;;;;;;;1.65;1.55;;;;;;;;;;4974812;28;20209;-89
2021/07/18 00:03:21;;;;;;;2.35;1.50;;;;;;;;;;4975214;28;20193;-89
2021/07/18 00:05:49;;;;;;;1.52;1.38;;;;;;;;;;4974399;28;20273;-90
2021/07/18 00:08:18;;;;;;;2.92;2.42;;;;;;;;;;4975049;28;20299;-89
2021/07/18 00:10:45;;;;;;;2.53;1.67;;;;;;;;;;4974721;28;20212;-89
2021/07/18 00:13:13;;;;;;;2.90;1.67;;;;;;;;;;4974958;28;20181;-89
2021/07/18 00:15:40;;;;;;;2.83;2.13;;;;;;;;;;4974396;28;20247;-89
2021/07/18 00:18:08;;;;;;;1.63;1.30;;;;;;;;;;4974958;28;20214;-89
2021/07/18 00:20:36;;;;;;;1.48;1.30;;;;;;;;;;4974410;28;20727;-89
2021/07/18 00:23:03;;;;;;;1.15;1.10;;;;;;;;;;4974475;28;20561;-90
2021/07/18 00:25:33;;;;;;;1.85;1.48;;;;;;;;;;4974082;28;20710;-88
2021/07/18 00:28:00;;;;;;;2.05;1.95;;;;;;;;;;4974420;28;20224;-89
2021/07/18 00:30:28;;;;;;;1.65;1.55;;;;;;;;;;4974066;28;20874;-89
2021/07/18 00:32:56;;;;;;;1.30;1.20;;;;;;;;;;4974397;28;20200;-88
2021/07/18 00:35:24;;;;;;;1.85;1.23;;;;;;;;;;4974240;28;20244;-88
2021/07/18 00:37:51;;;;;;;2.42;1.95;;;;;;;;;;4974001;28;20205;-89
2021/07/18 00:40:18;;;;;;;2.95;1.70;;;;;;;;;;4974638;28;20267;-89
2021/07/18 00:42:47;;;;;;;3.88;1.30;;;;;;;;;;4973891;28;20561;-89
2021/07/18 00:45:15;;;;;;;1.58;1.48;;;;;;;;;;4979932;28;20600;-89
2021/07/18 00:47:43;;;;;;;1.10;1.00;;;;;;;;;;4993368;28;20230;-89
2021/07/18 00:50:14;;;;;;;1.98;1.55;;;;;;;;;;4993074;28;20608;-89
2021/07/18 00:52:43;;;;;;;1.60;1.50;;;;;;;;;;4993909;28;20184;-90
2021/07/18 00:55:12;;;;;;;1.85;1.50;;;;;;;;;;4993417;28;20215;-89
2021/07/18 00:57:40;;;;;;;1.73;1.30;;;;;;;;;;4993239;28;20188;-89
2021/07/18 01:00:12;;;;;;;2.88;1.98;;;;;;;;;;4992736;28;20749;-88
2021/07/18 01:02:40;;;;;;;1.40;1.30;;;;;;;;;;4992525;28;20203;-90
2021/07/18 01:05:11;;;;;;;1.35;1.25;;;;;;;;;;4978325;28;20231;-88
2021/07/18 01:07:39;;;;;;;2.78;1.50;;;;;;;;;;4973581;28;20208;-89
2021/07/18 01:10:09;;;;;;;3.00;1.50;;;;;;;;;;4973913;28;20199;-89
2021/07/18 01:12:37;;;;;;;1.65;1.55;;;;;;;;;;4973685;28;20207;-89
2021/07/18 01:15:05;;;;;;;1.60;1.50;;;;;;;;;;4973647;28;20255;-89
2021/07/18 01:17:34;;;;;;;1.60;1.48;;;;;;;;;;4973408;28;20208;-89
2021/07/18 01:20:04;;;;;;;1.50;1.38;;;;;;;;;;4973448;28;20200;-89
2021/07/18 01:22:33;;;;;;;2.35;1.92;;;;;;;;;;4973366;28;20300;-89
2021/07/18 01:25:01;;;;;;;1.45;1.35;;;;;;;;;;4973046;28;20591;-89
2021/07/18 01:27:29;;;;;;;2.45;1.65;;;;;;;;;;4973739;28;20212;-89
2021/07/18 01:29:57;;;;;;;1.95;1.77;;;;;;;;;;4972946;28;20206;-89
2021/07/18 01:32:24;;;;;;;1.50;1.40;;;;;;;;;;4972607;28;20207;-88
2021/07/18 01:34:52;;;;;;;2.72;1.92;;;;;;;;;;4973387;28;20604;-89
2021/07/18 01:37:19;;;;;;;3.10;1.70;;;;;;;;;;4972706;28;20633;-89
2021/07/18 01:39:48;;;;;;;1.50;1.40;;;;;;;;;;4972880;28;20201;-89
2021/07/18 01:42:16;;;;;;;1.70;1.60;;;;;;;;;;4972708;28;20597;-89
2021/07/18 01:44:44;;;;;;;2.55;1.80;;;;;;;;;;4972672;28;20225;-90
2021/07/18 01:47:12;;;;;;;1.50;1.40;;;;;;;;;;4973131;28;20279;-89
2021/07/18 01:49:40;;;;;;;1.77;1.58;;;;;;;;;;4973155;28;20212;-89
2021/07/18 01:52:08;;;;;;;2.13;1.90;;;;;;;;;;4972756;28;20204;-89
2021/07/18 01:54:36;;;;;;;2.13;1.80;;;;;;;;;;4972487;28;20318;-89
2021/07/18 01:57:12;;;;;;;1.70;1.60;;;;;;;;;;4972963;28;20189;-88
2021/07/18 01:59:39;;;;;;;2.08;1.77;;;;;;;;;;4971171;28;20208;-88
2021/07/18 02:02:09;;;;;;;1.95;1.75;;;;;;;;;;4970582;28;20189;-88
2021/07/18 02:04:36;;;;;;;2.78;2.03;;;;;;;;;;4970776;28;20718;-89
2021/07/18 02:07:05;;;;;;;1.58;1.48;;;;;;;;;;4971335;28;20675;-88
2021/07/18 02:09:35;;;;;;;2.28;1.73;;;;;;;;;;4971721;28;20232;-89
2021/07/18 02:12:03;;;;;;;2.25;1.77;;;;;;;;;;4971595;28;20243;-89
2021/07/18 02:14:32;;;;;;;3.33;1.95;;;;;;;;;;4971205;28;20644;-88
2021/07/18 02:17:00;;;;;;;3.72;2.03;;;;;;;;;;4971199;28;20200;-87
2021/07/18 02:19:30;;;;;;;1.50;1.40;;;;;;;;;;4970776;28;20312;-87
2021/07/18 02:21:57;;;;;;;1.88;1.77;;;;;;;;;;4971237;28;20215;-88
2021/07/18 02:24:25;;;;;;;6.53;3.08;;;;;;;;;;4970500;28;20224;-88
2021/07/18 02:26:53;;;;;;;2.75;2.05;;;;;;;;;;4971409;28;20216;-89
2021/07/18 02:29:21;;;;;;;2.05;1.90;;;;;;;;;;4971838;28;20216;-88
2021/07/18 02:31:50;;;;;;;1.77;1.67;;;;;;;;;;4971390;28;20181;-87
2021/07/18 02:34:17;;;;;;;2.78;1.88;;;;;;;;;;4971433;28;20216;-88
2021/07/18 02:36:44;;;;;;;2.67;1.70;;;;;;;;;;4970862;28;20292;-88
2021/07/18 02:39:12;;;;;;;1.73;1.63;;;;;;;;;;4970785;28;20707;-88
2021/07/18 02:41:39;;;;;;;2.00;1.48;;;;;;;;;;4970931;28;20915;-89
2021/07/18 02:44:08;;;;;;;2.03;1.83;;;;;;;;;;4974704;28;20228;-88
2021/07/18 02:46:36;;;;;;;4.18;1.70;;;;;;;;;;4978536;28;20295;-88
2021/07/18 02:49:05;;;;;;;2.95;2.10;;;;;;;;;;4977950;28;20358;-88
2021/07/18 02:51:33;;;;;;;1.85;1.75;;;;;;;;;;4982934;28;20211;-88
2021/07/18 02:54:00;;;;;;;2.35;2.15;;;;;;;;;;4976533;28;20219;-88
2021/07/18 02:56:27;;;;;;;1.77;1.42;;;;;;;;;;4971614;28;20226;-88
2021/07/18 02:58:55;;;;;;;3.15;1.77;;;;;;;;;;4970051;28;20230;-88
2021/07/18 03:01:22;;;;;;;1.95;1.65;;;;;;;;;;4970639;28;20216;-88
2021/07/18 03:03:51;;;;;;;2.47;2.03;;;;;;;;;;4970315;28;20283;-88
2021/07/18 03:06:19;;;;;;;3.05;1.90;;;;;;;;;;4970375;28;20218;-87
2021/07/18 03:08:47;;;;;;;3.47;2.17;;;;;;;;;;4969786;28;20224;-88
2021/07/18 03:11:14;;;;;;;1.95;1.80;;;;;;;;;;4970079;28;20575;-87
2021/07/18 03:13:41;;;;;;;2.50;2.30;;;;;;;;;;4972087;28;20189;-88
2021/07/18 03:16:09;;;;;;;2.03;1.77;;;;;;;;;;4973421;28;20230;-88
2021/07/18 03:18:36;;;;;;;2.30;1.60;;;;;;;;;;4974221;28;20204;-88
2021/07/18 03:21:04;;;;;;;2.00;1.73;;;;;;;;;;4974076;28;20219;-89
2021/07/18 03:23:33;;;;;;;2.08;1.88;;;;;;;;;;4974253;28;20683;-87
2021/07/18 03:26:00;;;;;;;3.85;1.80;;;;;;;;;;4973624;28;20224;-88
2021/07/18 03:28:28;;;;;;;3.35;3.03;;;;;;;;;;4973610;28;20209;-88
2021/07/18 03:30:57;;;;;;;1.75;1.65;;;;;;;;;;4973977;28;20351;-87
2021/07/18 03:33:24;;;;;;;3.95;1.98;;;;;;;;;;4973660;28;20286;-88
2021/07/18 03:35:53;;;;;;;3.22;2.17;;;;;;;;;;4973713;28;20737;-88
2021/07/18 03:38:20;;;;;;;3.03;2.10;;;;;;;;;;4974114;28;20204;-88
2021/07/18 03:40:49;;;;;;;2.30;1.90;;;;;;;;;;4974044;28;20585;-88
2021/07/18 03:43:16;;;;;;;1.95;1.80;;;;;;;;;;4973578;28;20204;-88
2021/07/18 03:45:44;;;;;;;2.67;2.00;;;;;;;;;;4982861;28;20713;-88
2021/07/18 03:48:11;;;;;;;4.20;2.30;;;;;;;;;;4993260;28;20203;-88
2021/07/18 03:50:39;;;;;;;2.60;2.35;;;;;;;;;;4992961;28;20223;-87
2021/07/18 03:53:06;;;;;;;4.05;2.35;;;;;;;;;;4992882;28;20221;-88
2021/07/18 03:55:33;;;;;;;2.42;2.22;;;;;;;;;;4974754;28;20224;-89
2021/07/18 03:58:02;;;;;;;2.45;2.05;;;;;;;;;;4973437;28;20255;-88
2021/07/18 04:00:30;;;;;;;2.28;1.98;;;;;;;;;;4973529;28;20208;-88
2021/07/18 04:02:57;;;;;;;2.10;1.77;;;;;;;;;;4973854;28;20195;-88
2021/07/18 04:05:25;;;;;;;2.78;2.25;;;;;;;;;;4974576;28;20224;-88
2021/07/18 04:07:53;;;;;;;2.10;1.80;;;;;;;;;;4975409;28;20189;-87
2021/07/18 04:10:20;;;;;;;2.65;2.13;;;;;;;;;;4975210;28;20216;-88
2021/07/18 04:12:48;;;;;;;2.92;2.55;;;;;;;;;;4975100;28;20211;-88
2021/07/18 04:15:17;;;;;;;3.08;2.35;;;;;;;;;;4975523;28;20224;-88
2021/07/18 04:17:45;;;;;;;3.45;2.95;;;;;;;;;;4975817;28;20204;-89
2021/07/18 04:20:15;;;;;;;2.42;2.22;;;;;;;;;;4973947;28;20188;-88
2021/07/18 04:22:43;;;;;;;2.85;2.45;;;;;;;;;;4974716;28;20215;-88
2021/07/18 04:25:18;;;;;;;3.22;2.80;;;;;;;;;;4974813;28;20883;-89
2021/07/18 04:27:55;;;;;;;3.08;2.50;;;;;;;;;;4976120;28;20253;-89
2021/07/18 04:30:31;;;;;;;3.13;2.28;;;;;;;;;;4976022;28;20581;-88
2021/07/18 04:33:00;;;;;;;2.50;2.30;;;;;;;;;;4975901;28;20184;-89
2021/07/18 04:35:29;;;;;;;3.40;2.50;;;;;;;;;;4992563;28;20709;-89
2021/07/18 04:37:59;;;;;;;3.35;2.70;;;;;;;;;;4995466;28;20210;-89
2021/07/18 04:40:27;;;;;;;5.50;2.95;;;;;;;;;;4995250;28;20199;-88
2021/07/18 04:42:54;;;;;;;4.03;2.70;;;;;;;;;;4995118;28;20192;-88
2021/07/18 04:45:22;;;;;;;2.63;2.42;;;;;;;;;;4978481;28;20275;-89
2021/07/18 04:47:54;;;;;;;3.80;3.10;;;;;;;;;;4975422;28;20566;-88
2021/07/18 04:50:29;;;;;;;3.95;3.47;;;;;;;;;;4975600;28;20209;-88
2021/07/18 04:52:57;;;;;;;4.78;3.00;;;;;;;;;;4975100;28;20325;-85
2021/07/18 04:55:25;;;;;;;3.78;2.78;;;;;;;;;;4974841;28;20216;-85
2021/07/18 04:57:53;;;;;;;3.42;2.67;;;;;;;;;;4974765;28;20207;-86
2021/07/18 05:00:23;;;;;;;4.75;3.00;;;;;;;;;;4974490;28;20211;-85
2021/07/18 05:02:52;;;;;;;2.47;2.28;;;;;;;;;;4973956;28;20232;-86
2021/07/18 05:05:21;;;;;;;3.15;2.70;;;;;;;;;;4973090;28;20228;-86
2021/07/18 05:07:50;;;;;;;3.35;3.05;;;;;;;;;;4973949;28;20189;-86
2021/07/18 05:10:19;;;;;;;3.10;2.85;;;;;;;;;;4974013;28;20581;-84
2021/07/18 05:12:47;;;;;;;3.83;3.45;;;;;;;;;;4973811;28;20200;-85
2021/07/18 05:15:15;;;;;;;2.55;2.35;;;;;;;;;;4973275;28;20228;-86
2021/07/18 05:17:43;;;;;;;3.60;3.00;;;;;;;;;;4972979;28;20192;-85
2021/07/18 05:20:14;;;;;;;3.70;3.08;;;;;;;;;;4972758;28;20212;-86
2021/07/18 05:22:41;;;;;;;3.25;2.95;;;;;;;;;;4972715;28;20569;-86
2021/07/18 05:25:11;;;;;;;3.10;2.85;;;;;;;;;;4972655;28;20585;-87
2021/07/18 05:27:40;;;;;;;3.63;3.33;;;;;;;;;;4973567;28;20188;-87
2021/07/18 05:30:11;;;;;;;4.28;3.88;;;;;;;;;;4973156;28;20279;-86
2021/07/18 05:32:41;;;;;;;6.40;3.70;;;;;;;;;;4972932;28;20188;-86
2021/07/18 05:35:12;;;;;;;4.25;3.95;;;;;;;;;;4972794;28;20220;-86
2021/07/18 05:37:40;;;;;;;5.10;3.85;;;;;;;;;;4973330;28;20177;-85
2021/07/18 05:40:10;;;;;;;3.72;3.30;;;;;;;;;;4972907;28;20204;-86
2021/07/18 05:42:38;;;;;;;4.30;3.90;;;;;;;;;;4973262;28;20581;-86
2021/07/18 05:45:07;;;;;;;4.65;3.97;;;;;;;;;;4972355;28;20321;-86
2021/07/18 05:47:35;;;;;;;4.90;4.20;;;;;;;;;;4972704;28;20200;-85
2021/07/18 05:50:03;;;;;;;4.15;3.75;;;;;;;;;;4972526;28;20252;-86
2021/07/18 05:52:33;;;;;;;3.90;3.55;;;;;;;;;;4972378;28;20294;-85
2021/07/18 05:55:00;;;;;;;4.07;3.78;;;;;;;;;;4971954;28;20220;-85
2021/07/18 05:57:29;;;;;;;3.95;3.65;;;;;;;;;;4972591;28;20204;-85
2021/07/18 05:59:56;;;;;;;5.97;4.38;;;;;;;;;;4972523;28;20216;-85
2021/07/18 06:02:24;;;;;;;6.45;4.85;;;;;;;;;;4972127;28;20181;-85
2021/07/18 06:04:51;;;;;;;4.25;3.88;;;;;;;;;;4973063;28;20306;-85
2021/07/18 06:07:19;;;;;;;3.35;3.05;;;;;;;;;;4973122;28;20204;-84
2021/07/18 06:09:47;;;;;;;4.57;3.83;;;;;;;;;;4973813;28;20188;-85
2021/07/18 06:12:15;;;;;;;4.07;3.78;;;;;;;;;;4974038;28;20205;-85
2021/07/18 06:14:43;;;;;;;6.57;4.68;;;;;;;;;;4973355;28;20223;-84
2021/07/18 06:17:12;;;;;;;5.47;4.00;;;;;;;;;;4973850;28;20231;-85
2021/07/18 06:19:39;;;;;;;4.95;4.50;;;;;;;;;;4973423;28;20689;-85
2021/07/18 06:22:08;;;;;;;3.90;3.38;;;;;;;;;;4973532;28;20713;-85
2021/07/18 06:24:37;;;;;;;5.85;4.65;;;;;;;;;;4973404;28;20228;-84
2021/07/18 06:27:07;;;;;;;4.75;4.35;;;;;;;;;;4973543;28;20197;-86
2021/07/18 06:29:34;;;;;;;6.70;4.65;;;;;;;;;;4973785;28;20554;-84
2021/07/18 06:32:04;;;;;;;6.38;4.50;;;;;;;;;;4973386;28;20204;-84
2021/07/18 06:34:32;;;;;;;6.53;4.70;;;;;;;;;;4973619;28;20275;-85
2021/07/18 06:37:00;;;;;;;4.03;3.72;;;;;;;;;;4973257;28;20204;-84
2021/07/18 06:39:27;;;;;;;3.58;3.30;;;;;;;;;;4973644;28;20252;-86
2021/07/18 06:41:55;;;;;;;4.03;3.55;;;;;;;;;;4973907;28;20202;-85
2021/07/18 06:44:23;;;;;;;3.45;3.15;;;;;;;;;;4973732;28;20593;-85
2021/07/18 06:46:51;;;;;;;5.05;3.00;;;;;;;;;;4989928;28;20247;-85
2021/07/18 06:49:18;;;;;;;4.13;3.83;;;;;;;;;;4995584;28;20219;-85
2021/07/18 06:51:47;;;;;;;3.97;3.50;;;;;;;;;;4996248;28;20227;-86
2021/07/18 06:54:14;;;;;;;3.88;3.58;;;;;;;;;;4996504;28;20226;-85
2021/07/18 06:56:42;;;;;;;2.90;2.70;;;;;;;;;;4996745;28;20187;-85
2021/07/18 06:59:09;;;;;;;3.33;2.60;;;;;;;;;;4996583;28;20215;-85
2021/07/18 07:01:38;;;;;;;3.50;3.20;;;;;;;;;;4996488;28;20188;-85
2021/07/18 07:04:06;;;;;;;3.40;3.17;;;;;;;;;;4996431;28;20232;-85
2021/07/18 07:06:34;;;;;;;3.72;3.42;;;;;;;;;;4996598;28;20235;-85
2021/07/18 07:09:02;;;;;;;5.18;3.90;;;;;;;;;;4996356;28;20199;-86
2021/07/18 07:11:29;;;;;;;4.20;3.80;;;;;;;;;;4995915;28;20235;-85
2021/07/18 07:13:57;;;;;;;8.45;4.10;;;;;;;;;;4996554;28;20188;-85
2021/07/18 07:16:25;;;;;;;4.20;3.83;;;;;;;;;;4996393;28;20195;-86
2021/07/18 07:18:55;;;;;;;4.07;3.78;;;;;;;;;;4996387;28;20199;-86
2021/07/18 07:21:23;;;;;;;4.28;3.22;;;;;;;;;;4996023;28;20184;-85
2021/07/18 07:23:51;;;;;;;5.05;3.35;;;;;;;;;;4995984;28;20210;-86
2021/07/18 07:26:18;;;;;;;3.80;3.50;;;;;;;;;;4996012;28;20187;-85
2021/07/18 07:28:46;;;;;;;3.63;3.33;;;;;;;;;;4996083;28;20180;-84
2021/07/18 07:31:13;;;;;;;3.67;3.38;;;;;;;;;;4995990;28;20223;-85
2021/07/18 07:33:41;;;;;;;3.85;3.55;;;;;;;;;;4995816;28;20187;-85
2021/07/18 07:36:10;;;;;;;3.72;3.38;;;;;;;;;;4995570;28;20223;-85
2021/07/18 07:38:38;;;;;;;3.28;3.08;;;;;;;;;;4996213;28;20195;-85
2021/07/18 07:41:05;;;;;;;3.53;3.00;;;;;;;;;;4995604;28;20670;-85
2021/07/18 07:43:33;;;;;;;3.28;2.97;;;;;;;;;;4995533;28;20199;-85
2021/07/18 07:46:00;;;;;;;3.30;3.00;;;;;;;;;;4995242;28;20231;-84
2021/07/18 07:48:28;;;;;;;3.13;2.83;;;;;;;;;;4995762;28;20180;-85
2021/07/18 07:50:57;;;;;;;3.92;3.38;;;;;;;;;;4995239;28;20208;-85
2021/07/18 07:53:26;;;;;;;3.70;3.40;;;;;;;;;;4995850;28;20188;-85
2021/07/18 07:55:54;;;;;;;3.33;3.03;;;;;;;;;;4995725;28;20212;-85
2021/07/18 07:58:23;;;;;;;3.00;2.67;;;;;;;;;;4995499;28;20625;-86
2021/07/18 08:00:53;;;;;;;3.33;3.13;;;;;;;;;;4994485;28;20561;-85
2021/07/18 08:03:21;;;;;;;3.13;2.67;;;;;;;;;;4995621;28;20192;-86
2021/07/18 08:05:50;;;;;;;2.78;2.58;;;;;;;;;;4995542;28;20724;-85
2021/07/18 08:08:18;;;;;;;4.18;3.38;;;;;;;;;;4995388;28;20191;-86
2021/07/18 08:10:47;;;;;;;3.47;3.17;;;;;;;;;;4995218;28;20559;-85
2021/07/18 08:13:15;;;;;;;3.35;3.10;;;;;;;;;;4995166;28;20226;-85
2021/07/18 08:15:42;;;;;;;3.00;2.80;;;;;;;;;;4995344;28;20228;-85
2021/07/18 08:18:10;;;;;;;3.28;2.78;;;;;;;;;;4995132;28;20188;-85
2021/07/18 08:20:37;;;;;;;2.83;2.63;;;;;;;;;;4995370;28;20192;-86
2021/07/18 08:23:06;;;;;;;2.75;2.55;;;;;;;;;;4995140;28;20188;-85
2021/07/18 08:25:33;;;;;;;3.42;3.03;;;;;;;;;;4995063;28;20223;-85
2021/07/18 08:28:02;;;;;;;3.75;2.95;;;;;;;;;;4995062;28;20176;-86
2021/07/18 08:30:30;;;;;;;2.70;2.20;;;;;;;;;;4995055;28;20194;-86
2021/07/18 08:32:57;;;;;;;2.50;2.30;;;;;;;;;;4994939;28;20204;-85
2021/07/18 08:35:26;;;;;;;3.75;3.40;;;;;;;;;;4994951;28;20228;-85
2021/07/18 08:37:53;;;;;;;2.55;2.35;;;;;;;;;;4994922;28;20214;-85
2021/07/18 08:40:21;;;;;;;3.08;2.88;;;;;;;;;;4994659;28;20196;-87
2021/07/18 08:42:48;;;;;;;2.92;2.72;;;;;;;;;;4994857;28;20188;-85
2021/07/18 08:45:17;;;;;;;4.35;2.90;;;;;;;;;;4994410;28;20253;-85
2021/07/18 08:47:45;;;;;;;2.97;2.72;;;;;;;;;;4994683;28;20212;-85
2021/07/18 08:50:14;;;;;;;2.60;2.40;;;;;;;;;;4994388;28;20211;-85
2021/07/18 08:52:42;;;;;;;2.63;2.42;;;;;;;;;;4994359;28;20224;-84
2021/07/18 08:55:12;;;;;;;3.10;2.78;;;;;;;;;;4993947;28;20231;-87
2021/07/18 08:57:40;;;;;;;2.88;2.38;;;;;;;;;;4994137;28;20230;-85
2021/07/18 09:00:09;;;;;;;5.55;2.90;;;;;;;;;;4974942;28;20196;-86
2021/07/18 09:02:43;;;;;;;2.67;2.47;;;;;;;;;;4974282;28;20185;-85
2021/07/18 09:05:11;;;;;;;3.10;2.90;;;;;;;;;;4975004;28;20232;-86
2021/07/18 09:07:47;;;;;;;2.72;2.53;;;;;;;;;;4975042;28;20189;-85
2021/07/18 09:10:20;;;;;;;2.10;2.00;;;;;;;;;;4974799;28;20197;-84
2021/07/18 09:13:06;;;;;;;2.15;2.05;;;;;;;;;;4974311;28;20208;-85
2021/07/18 09:15:44;;;;;;;2.47;2.05;;;;;;;;;;4974645;28;20236;-85
2021/07/18 09:18:15;;;;;;;2.65;2.45;;;;;;;;;;4974083;28;20199;-86
2021/07/18 09:20:45;;;;;;;2.33;2.22;;;;;;;;;;4974310;28;20196;-85
2021/07/18 09:23:16;;;;;;;2.30;2.10;;;;;;;;;;4974594;28;20193;-85
2021/07/18 09:25:45;;;;;;;2.40;2.20;;;;;;;;;;4974356;28;20231;-86
2021/07/18 09:28:16;;;;;;;3.35;2.45;;;;;;;;;;4974206;28;20593;-85
2021/07/18 09:30:44;;;;;;;3.15;2.88;;;;;;;;;;4974281;28;20180;-86
2021/07/18 09:33:24;;;;;;;2.15;1.95;;;;;;;;;;4974057;28;20205;-84
2021/07/18 09:36:11;;;;;;;3.00;2.17;;;;;;;;;;4974067;28;20707;-86
2021/07/18 09:38:38;;;;;;;1.83;1.73;;;;;;;;;;4972964;28;20610;-85
2021/07/18 09:41:06;;;;;;;1.90;1.80;;;;;;;;;;4973837;28;20647;-86
2021/07/18 09:43:33;;;;;;;2.03;1.90;;;;;;;;;;4974268;28;20196;-85
2021/07/18 09:46:06;;;;;;;2.08;1.98;;;;;;;;;;4973633;28;20239;-85
2021/07/18 09:48:40;;;;;;;1.80;1.70;;;;;;;;;;4974029;28;20205;-86
2021/07/18 09:51:11;;;;;;;4.85;2.72;;;;;;;;;;4973857;28;20192;-86
2021/07/18 09:53:41;;;;;;;2.35;2.25;;;;;;;;;;4973609;28;20687;-86
2021/07/18 09:56:10;;;;;;;1.88;1.77;;;;;;;;;;4974020;28;20215;-87
2021/07/18 09:58:40;;;;;;;1.63;1.52;;;;;;;;;;4973147;28;20188;-85
2021/07/18 10:01:10;;;;;;;2.13;1.92;;;;;;;;;;4974029;28;20193;-85
2021/07/18 10:03:47;;;;;;;1.92;1.73;;;;;;;;;;4972959;28;20196;-86
2021/07/18 10:06:16;;;;;;;1.90;1.60;;;;;;;;;;4973666;28;20239;-85
2021/07/18 10:08:45;;;;;;;1.65;1.55;;;;;;;;;;4972403;28;20188;-86
2021/07/18 10:11:16;;;;;;;1.55;1.45;;;;;;;;;;4973608;28;20215;-85
2021/07/18 10:13:45;;;;;;;1.75;1.50;;;;;;;;;;4973715;28;20219;-86
2021/07/18 10:16:15;;;;;;;1.90;1.73;;;;;;;;;;4973837;28;20185;-85
2021/07/18 10:18:45;;;;;;;1.80;1.70;;;;;;;;;;4973814;28;20196;-86
2021/07/18 10:21:17;;;;;;;1.65;1.55;;;;;;;;;;4973719;28;20196;-85
2021/07/18 10:23:47;;;;;;;1.75;1.65;;;;;;;;;;4972817;28;20824;-86
2021/07/18 10:26:16;;;;;;;2.00;1.88;;;;;;;;;;4973689;28;20566;-85
2021/07/18 10:28:45;;;;;;;1.85;1.75;;;;;;;;;;4960115;28;20279;-85
2021/07/18 10:31:17;;;;;;;1.50;1.40;;;;;;;;;;4973633;28;20204;-85
2021/07/18 10:33:47;;;;;;;1.90;1.80;;;;;;;;;;4973533;28;20212;-86
2021/07/18 10:36:16;;;;;;;2.35;1.27;;;;;;;;;;4973338;28;20189;-87
2021/07/18 10:38:44;;;;;;;1.52;1.42;;;;;;;;;;4973312;28;20305;-85
2021/07/18 10:41:12;;;;;;;1.80;1.70;;;;;;;;;;4973660;28;20193;-85
2021/07/18 10:43:43;;;;;;;2.50;2.30;;;;;;;;;;4973322;28;20567;-85
2021/07/18 10:46:13;;;;;;;1.70;1.60;;;;;;;;;;4972776;28;20296;-86
2021/07/18 10:48:51;;;;;;;5.65;2.35;;;;;;;;;;4972488;28;20200;-86
2021/07/18 10:51:20;;;;;;;2.15;1.77;;;;;;;;;;4973737;28;20250;-86
2021/07/18 10:54:10;;;;;;;1.75;1.65;;;;;;;;;;4973983;28;20212;-86
2021/07/18 10:56:43;;;;;;;1.40;1.30;;;;;;;;;;4974873;28;20189;-85
2021/07/18 10:59:35;;;;;;;1.48;1.42;;;;;;;;;;4975725;28;20204;-85
2021/07/18 11:02:06;;;;;;;1.77;1.67;;;;;;;;;;4974677;28;20263;-86
2021/07/18 11:04:44;;;;;;;1.70;1.60;;;;;;;;;;4974648;28;20228;-85
2021/07/18 11:07:33;;;;;;;1.98;1.73;;;;;;;;;;4972805;28;20191;-85
2021/07/18 11:10:12;;;;;;;2.08;1.95;;;;;;;;;;4973013;28;20640;-86
2021/07/18 11:12:45;;;;;;;2.25;2.15;;;;;;;;;;4973104;28;20280;-86
2021/07/18 11:15:39;;;;;;;1.73;1.63;;;;;;;;;;4972925;28;20231;-85
2021/07/18 11:18:12;;;;;;;2.30;2.10;;;;;;;;;;4972215;28;20574;-84
2021/07/18 11:21:00;;;;;;;1.85;1.75;;;;;;;;;;4973294;28;20625;-85
2021/07/18 11:23:34;;;;;;;2.10;2.00;;;;;;;;;;4973695;28;20189;-84
2021/07/18 11:26:18;;;;;;;2.90;2.30;;;;;;;;;;4973551;28;20307;-85
2021/07/18 11:29:03;;;;;;;1.58;1.48;;;;;;;;;;4972202;28;20247;-86
2021/07/18 11:31:45;;;;;;;1.92;1.83;;;;;;;;;;4973090;28;20243;-87
2021/07/18 11:34:25;;;;;;;1.70;1.60;;;;;;;;;;4973520;28;20239;-87
2021/07/18 11:37:07;;;;;;;1.90;1.80;;;;;;;;;;4976514;28;20191;-86
2021/07/18 11:39:37;;;;;;;2.47;2.28;;;;;;;;;;4967203;28;20191;-86
2021/07/18 11:42:07;;;;;;;2.00;1.90;;;;;;;;;;4976457;28;20204;-86
2021/07/18 11:44:35;;;;;;;1.75;1.65;;;;;;;;;;4976174;28;20225;-86
2021/07/18 11:47:08;;;;;;;1.83;1.73;;;;;;;;;;4975904;28;20238;-86
2021/07/18 11:49:41;;;;;;;2.33;1.70;;;;;;;;;;4975655;28;20191;-87
2021/07/18 11:52:11;;;;;;;1.63;1.52;;;;;;;;;;4976177;28;20181;-84
2021/07/18 11:54:45;;;;;;;1.58;1.48;;;;;;;;;;4975904;28;20235;-85
2021/07/18 11:57:15;;;;;;;1.98;1.88;;;;;;;;;;4976148;28;20216;-85
2021/07/18 11:59:46;;;;;;;1.48;1.48;;;;;;;;;;4975356;28;20201;-84
2021/07/18 12:02:14;;;;;;;1.60;1.50;;;;;;;;;;4975741;28;20231;-85
2021/07/18 12:04:43;;;;;;;1.60;1.50;;;;;;;;;;4975535;28;20612;-85
2021/07/18 12:07:14;;;;;;;1.50;1.40;;;;;;;;;;4975865;28;20641;-85
2021/07/18 12:09:44;;;;;;;1.65;1.55;;;;;;;;;;4976384;28;20201;-85
2021/07/18 12:12:15;;;;;;;1.58;1.48;;;;;;;;;;4976151;28;20196;-83
2021/07/18 12:14:46;;;;;;;1.45;1.38;;;;;;;;;;4975870;28;20236;-85
2021/07/18 12:17:15;;;;;;;1.70;1.60;;;;;;;;;;4975843;28;20207;-84
2021/07/18 12:19:44;;;;;;;1.48;1.38;;;;;;;;;;4975511;28;20646;-86
2021/07/18 12:22:19;;;;;;;4.28;2.10;;;;;;;;;;4975870;28;20185;-85
2021/07/18 12:24:51;;;;;;;2.28;2.13;;;;;;;;;;4975535;28;20714;-85
2021/07/18 12:27:20;;;;;;;1.50;1.40;;;;;;;;;;4975332;28;20284;-86
2021/07/18 12:29:51;;;;;;;1.90;1.80;;;;;;;;;;4974992;28;20202;-84
2021/07/18 12:32:21;;;;;;;1.75;1.65;;;;;;;;;;4974581;28;21007;-84
2021/07/18 12:34:51;;;;;;;1.92;1.77;;;;;;;;;;4974925;28;20235;-86
2021/07/18 12:37:22;;;;;;;1.60;1.50;;;;;;;;;;4974198;28;20644;-85
2021/07/18 12:39:53;;;;;;;1.50;1.40;;;;;;;;;;4975093;28;20185;-86
2021/07/18 12:42:24;;;;;;;1.70;1.60;;;;;;;;;;4974336;28;20200;-86
2021/07/18 12:44:55;;;;;;;1.25;1.25;;;;;;;;;;4974174;28;20667;-85
2021/07/18 12:47:33;;;;;;;1.70;1.60;;;;;;;;;;4973780;28;20189;-85
2021/07/18 12:50:15;;;;;;;2.13;1.95;;;;;;;;;;4973294;28;20574;-85
2021/07/18 12:53:03;;;;;;;1.85;1.75;;;;;;;;;;4974692;28;20230;-87
2021/07/18 12:55:38;;;;;;;1.70;1.60;;;;;;;;;;4974198;28;20578;-86
2021/07/18 12:58:23;;;;;;;2.08;1.90;;;;;;;;;;4974795;28;20202;-85
2021/07/18 13:01:02;;;;;;;2.35;1.80;;;;;;;;;;4973967;28;20639;-86
2021/07/18 13:03:37;;;;;;;1.83;1.73;;;;;;;;;;4974689;28;20211;-85
2021/07/18 13:06:10;;;;;;;1.70;1.60;;;;;;;;;;4974255;28;20239;-86
2021/07/18 13:08:46;;;;;;;1.48;1.40;;;;;;;;;;4974322;28;20189;-87
2021/07/18 13:11:37;;;;;;;1.33;1.33;;;;;;;;;;4973804;28;20214;-85
2021/07/18 13:14:25;;;;;;;1.83;1.73;;;;;;;;;;4973922;28;20355;-86
2021/07/18 13:17:02;;;;;;;1.75;1.65;;;;;;;;;;4973797;28;20189;-85
2021/07/18 13:19:30;;;;;;;1.90;1.48;;;;;;;;;;4974128;28;20200;-85
2021/07/18 13:22:03;;;;;;;1.90;1.80;;;;;;;;;;4974211;28;20197;-86
2021/07/18 13:24:38;;;;;;;1.88;1.77;;;;;;;;;;4974517;28;20642;-84
2021/07/18 13:27:14;;;;;;;2.55;2.00;;;;;;;;;;4973467;28;20210;-84
2021/07/18 13:29:44;;;;;;;2.00;1.90;;;;;;;;;;4955285;29;20193;-85
2021/07/18 13:32:14;;;;;;;3.30;1.85;;;;;;;;;;4973696;28;20564;-84
2021/07/18 13:34:53;;;;;;;2.63;1.88;;;;;;;;;;4973980;28;20239;-85
2021/07/18 13:37:34;;;;;;;2.38;2.08;;;;;;;;;;4958502;28;20242;-85
2021/07/18 13:40:20;;;;;;;1.80;1.70;;;;;;;;;;4973813;28;20236;-84
2021/07/18 13:42:48;;;;;;;1.63;1.55;;;;;;;;;;4974947;28;20196;-85
2021/07/18 13:45:16;;;;;;;2.08;1.90;;;;;;;;;;4974297;28;20243;-85
2021/07/18 13:47:44;;;;;;;1.92;1.83;;;;;;;;;;4973156;28;20197;-84
2021/07/18 13:50:11;;;;;;;1.98;1.88;;;;;;;;;;4973509;28;20204;-86
2021/07/18 13:52:41;;;;;;;2.15;1.80;;;;;;;;;;4973871;28;20204;-85
2021/07/18 13:55:11;;;;;;;1.90;1.40;;;;;;;;;;4974096;28;20242;-85
2021/07/18 13:57:38;;;;;;;2.20;2.08;;;;;;;;;;4972906;28;20204;-86
2021/07/18 14:00:08;;;;;;;1.80;1.70;;;;;;;;;;4973822;28;20192;-85
2021/07/18 14:02:35;;;;;;;1.90;1.80;;;;;;;;;;4974515;28;20207;-84
2021/07/18 14:05:05;;;;;;;1.90;1.80;;;;;;;;;;4974218;28;20228;-85
2021/07/18 14:07:33;;;;;;;1.75;1.65;;;;;;;;;;4973841;28;20208;-85
2021/07/18 14:10:00;;;;;;;1.80;1.63;;;;;;;;;;4974442;28;20537;-85
2021/07/18 14:12:29;;;;;;;1.33;1.27;;;;;;;;;;4973995;28;20199;-85
2021/07/18 14:14:57;;;;;;;2.15;1.58;;;;;;;;;;4972554;28;20260;-85
2021/07/18 14:17:24;;;;;;;3.05;2.00;;;;;;;;;;4973117;28;20202;-85
2021/07/18 14:19:53;;;;;;;2.00;1.70;;;;;;;;;;4973738;28;20573;-88
2021/07/18 14:22:20;;;;;;;2.10;2.00;;;;;;;;;;4973103;28;20287;-86
2021/07/18 14:24:47;;;;;;;1.70;1.60;;;;;;;;;;4973178;28;20224;-86
2021/07/18 14:27:16;;;;;;;1.95;1.80;;;;;;;;;;4973168;28;20185;-85
2021/07/18 14:29:47;;;;;;;1.70;1.60;;;;;;;;;;4972911;28;20197;-85
2021/07/18 14:32:15;;;;;;;1.80;1.70;;;;;;;;;;4973574;28;20299;-86
2021/07/18 14:34:43;;;;;;;1.60;1.42;;;;;;;;;;4972026;28;20243;-85
2021/07/18 14:37:10;;;;;;;2.03;1.92;;;;;;;;;;4971789;28;20319;-85
2021/07/18 14:39:38;;;;;;;2.20;2.00;;;;;;;;;;4973091;28;20195;-85
2021/07/18 14:42:05;;;;;;;2.28;2.10;;;;;;;;;;4973141;28;20199;-85
2021/07/18 14:44:33;;;;;;;2.05;1.65;;;;;;;;;;4973430;28;20220;-86
2021/07/18 14:47:03;;;;;;;1.27;1.23;;;;;;;;;;4973066;28;20232;-85
2021/07/18 14:49:31;;;;;;;1.50;1.40;;;;;;;;;;4972853;28;20647;-86
2021/07/18 14:51:59;;;;;;;1.50;1.40;;;;;;;;;;4972982;28;20189;-86
2021/07/18 14:54:26;;;;;;;1.60;1.50;;;;;;;;;;4972887;28;20718;-85
2021/07/18 14:56:55;;;;;;;2.25;1.48;;;;;;;;;;4972970;28;20259;-85
2021/07/18 14:59:24;;;;;;;1.90;1.42;;;;;;;;;;4973293;28;20223;-85